Terminal Aerodrome Forecast
Issued by NWS

Home | Current Version | Previous Version | Graphics & Text | Print | Product List | Glossary On
Versions: 1 2 3 4 5 6 7 8 9 10 11 12 13 14 15
000
FTUS45 KGGW 140500
TAFOLF
TAF
KOLF 140520Z 1406/1506 VRB06KT P6SM SCT250
     FM141500 VRB05KT P6SM BKN050
     FM150200 VRB03KT P6SM BKN100=

USA.gov is the U.S. government's official web portal to all federal, state and local government web resources and services.